Time;durP1;ratioP1;P1;durP2;ratioP2;P2;SDS_P1;SDS_P2;PMS_P1;PMS_P2;Temp;Humidity;BMP_temperature;BMP_pressure;BME280_temperature;BME280_humidity;BME280_pressure;Samples;Min_cycle;Max_cycle;Signal;HPM_P1;HPM_P2
2023/01/01 00:01:24;;;;;;;163.50;66.53;;;;;;;6.78;59.55;100731.38;4303617;33;20163;-85
2023/01/01 00:03:50;;;;;;;185.50;62.70;;;;;;;6.72;59.55;100733.97;4318361;33;20177;-84
2023/01/01 00:06:16;;;;;;;187.93;69.18;;;;;;;6.77;59.55;100721.91;4320825;33;20087;-85
2023/01/01 00:08:41;;;;;;;215.30;78.22;;;;;;;6.81;59.56;100730.50;4317842;33;20123;-84
2023/01/01 00:11:07;;;;;;;230.07;59.78;;;;;;;7.07;59.57;100727.00;4318448;33;20541;-85
2023/01/01 00:13:33;;;;;;;223.85;95.25;;;;;;;7.15;59.57;100732.19;4306214;33;20088;-85
2023/01/01 00:16:09;;;;;;;154.57;68.75;;;;;;;6.91;59.56;100740.00;4317971;33;20473;-85
2023/01/01 00:18:35;;;;;;;121.45;53.17;;;;;;;6.92;59.56;100736.56;4299829;33;20113;-85
2023/01/01 00:21:04;;;;;;;92.22;42.38;;;;;;;6.70;59.55;100739.16;4292323;33;20144;-84
2023/01/01 00:23:29;;;;;;;102.12;44.80;;;;;;;6.85;59.55;100738.25;4305733;33;20953;-85
2023/01/01 00:25:55;;;;;;;86.72;39.58;;;;;;;6.82;59.56;100732.22;4305001;33;20108;-85
2023/01/01 00:28:20;;;;;;;96.80;41.42;;;;;;;7.00;59.57;100732.22;4302119;33;20148;-85
2023/01/01 00:30:46;;;;;;;90.55;40.78;;;;;;;6.76;59.55;100727.94;4308407;33;20111;-85
2023/01/01 00:33:11;;;;;;;88.15;39.60;;;;;;;6.73;59.56;100727.94;4320491;33;20135;-84
2023/01/01 00:35:36;;;;;;;92.05;41.65;;;;;;;6.85;59.56;100721.87;4317273;33;20446;-85
2023/01/01 00:38:02;;;;;;;116.45;42.62;;;;;;;6.80;59.55;100721.03;4301134;33;20127;-84
2023/01/01 00:40:27;;;;;;;138.20;45.20;;;;;;;7.03;59.57;100720.12;4305282;33;20403;-83
2023/01/01 00:42:53;;;;;;;127.00;44.72;;;;;;;6.91;59.56;100727.94;4320765;33;20151;-85
2023/01/01 00:45:20;;;;;;;112.32;45.85;;;;;;;6.93;59.56;100728.78;4306428;33;20147;-85
2023/01/01 00:47:45;;;;;;;172.93;43.70;;;;;;;6.81;59.55;100726.19;4320664;33;20115;-83
2023/01/01 00:50:10;;;;;;;183.02;49.53;;;;;;;6.91;59.56;100729.66;4318185;33;20153;-84
2023/01/01 00:52:36;;;;;;;97.15;45.17;;;;;;;6.72;59.55;100736.56;4318229;33;20148;-85
2023/01/01 00:55:01;;;;;;;108.37;42.92;;;;;;;6.63;59.54;100734.00;4312657;33;20131;-84
2023/01/01 00:57:27;;;;;;;126.65;44.28;;;;;;;6.78;59.56;100719.31;4320529;33;21392;-84
2023/01/01 00:59:52;;;;;;;113.82;45.12;;;;;;;6.86;59.56;100728.78;4320961;33;20155;-85
2023/01/01 01:02:18;;;;;;;156.50;44.20;;;;;;;6.84;59.56;100720.16;4318790;33;20144;-85
2023/01/01 01:04:43;;;;;;;165.73;45.63;;;;;;;7.02;59.56;100725.31;4317972;33;23433;-85
2023/01/01 01:07:08;;;;;;;188.05;46.37;;;;;;;6.69;59.55;100729.69;4318788;33;20152;-84
2023/01/01 01:09:34;;;;;;;126.12;44.05;;;;;;;6.62;59.54;100730.53;4314258;33;20095;-85
2023/01/01 01:11:59;;;;;;;125.97;49.38;;;;;;;6.63;59.54;100734.84;4318054;33;20206;-85
2023/01/01 01:14:25;;;;;;;157.75;49.42;;;;;;;6.44;59.54;100731.41;4320718;33;20147;-85
2023/01/01 01:16:50;;;;;;;113.25;45.65;;;;;;;6.55;59.54;100731.38;4296791;33;20175;-85
2023/01/01 01:19:17;;;;;;;103.05;45.20;;;;;;;6.39;59.53;100725.37;4324957;33;20133;-85
2023/01/01 01:21:43;;;;;;;148.87;47.53;;;;;;;6.45;59.54;100735.72;4318367;33;20118;-85
2023/01/01 01:24:08;;;;;;;97.78;45.22;;;;;;;6.48;59.54;100729.69;4321046;33;20112;-85
2023/01/01 01:26:35;;;;;;;134.90;48.05;;;;;;;6.30;59.53;100722.75;4320772;33;20111;-85
2023/01/01 01:29:01;;;;;;;113.05;46.10;;;;;;;6.28;59.53;100729.66;4308401;33;20469;-85
2023/01/01 01:31:28;;;;;;;123.65;45.53;;;;;;;6.26;59.52;100741.72;4318449;33;20114;-85
2023/01/01 01:33:53;;;;;;;327.13;50.97;;;;;;;6.30;59.53;100737.41;4316424;33;20410;-85
2023/01/01 01:36:19;;;;;;;117.97;45.85;;;;;;;6.36;59.53;100733.09;4320748;33;20165;-85
2023/01/01 01:38:44;;;;;;;105.93;43.65;;;;;;;6.57;59.54;100729.66;4318081;33;20111;-86
2023/01/01 01:41:12;;;;;;;145.80;45.67;;;;;;;6.63;59.54;100731.41;4333291;33;20660;-85
2023/01/01 01:43:37;;;;;;;129.90;47.97;;;;;;;6.53;59.54;100734.84;4332810;33;20178;-85
2023/01/01 01:46:09;;;;;;;185.68;44.38;;;;;;;6.41;59.53;100738.31;4318146;33;20111;-85
2023/01/01 01:48:40;;;;;;;123.65;43.78;;;;;;;6.49;59.54;100735.72;4320671;33;20166;-85
2023/01/01 01:51:06;;;;;;;117.30;44.05;;;;;;;6.37;59.53;100726.19;4296596;33;20084;-85
2023/01/01 01:53:32;;;;;;;140.55;42.20;;;;;;;6.28;59.53;100727.06;4318221;33;20114;-85
2023/01/01 01:56:12;;;;;;;98.45;40.78;;;;;;;6.28;59.53;100724.47;4309126;33;20147;-85
2023/01/01 01:58:37;;;;;;;117.15;39.03;;;;;;;6.22;59.53;100726.22;4321034;33;20123;-86
2023/01/01 02:01:03;;;;;;;115.40;39.70;;;;;;;6.23;59.53;100739.13;4296152;33;20151;-84
2023/01/01 02:03:49;;;;;;;79.20;39.08;;;;;;;6.02;59.51;100729.63;4320976;33;20430;-85
2023/01/01 02:06:15;;;;;;;93.47;39.85;;;;;;;6.04;59.51;100735.66;4318266;33;20126;-85
2023/01/01 02:08:40;;;;;;;96.03;41.50;;;;;;;6.24;59.52;100737.41;4321224;33;20151;-85
2023/01/01 02:11:05;;;;;;;77.22;37.67;;;;;;;6.13;59.52;100743.41;4339229;33;20740;-85
2023/01/01 02:13:31;;;;;;;84.07;41.22;;;;;;;5.96;59.51;100733.91;4308462;33;20150;-84
2023/01/01 02:16:01;;;;;;;99.15;42.17;;;;;;;5.98;59.52;100733.06;4338556;33;20192;-83
2023/01/01 02:18:35;;;;;;;83.93;39.67;;;;;;;5.91;59.51;100735.59;4320074;33;20523;-86
2023/01/01 02:21:03;;;;;;;101.68;40.35;;;;;;;6.04;59.51;100734.78;4296571;33;20464;-85
2023/01/01 02:23:47;;;;;;;108.25;42.62;;;;;;;5.98;59.50;100729.63;4308483;33;20114;-86
2023/01/01 02:26:54;;;;;;;96.82;42.78;;;;;;;6.08;59.52;100739.97;4333308;33;20108;-85
2023/01/01 02:29:37;;;;;;;95.20;42.13;;;;;;;5.90;59.51;100750.25;4279931;33;20127;-85
2023/01/01 02:32:07;;;;;;;88.70;41.90;;;;;;;5.82;59.50;100755.37;4338684;33;20117;-85
2023/01/01 02:34:34;;;;;;;83.05;42.42;;;;;;;5.66;59.49;100748.41;4310207;33;20083;-85
2023/01/01 02:37:00;;;;;;;96.75;42.13;;;;;;;5.81;59.50;100751.06;4296695;33;20134;-85
2023/01/01 02:39:26;;;;;;;91.32;40.72;;;;;;;5.86;59.50;100753.66;4320473;33;20108;-84
2023/01/01 02:41:53;;;;;;;84.70;39.92;;;;;;;5.87;59.50;100753.66;4308482;33;20092;-86
2023/01/01 02:44:18;;;;;;;88.60;38.30;;;;;;;5.74;59.49;100757.06;4320563;33;20115;-85
2023/01/01 02:46:44;;;;;;;88.22;38.97;;;;;;;5.76;59.49;100759.66;4296154;33;20104;-85
2023/01/01 02:49:10;;;;;;;77.47;39.38;;;;;;;5.68;59.49;100756.16;4317857;33;20175;-86
2023/01/01 02:51:54;;;;;;;80.28;39.55;;;;;;;5.64;59.49;100744.97;4308313;33;20158;-85
2023/01/01 02:54:32;;;;;;;107.97;40.38;;;;;;;5.78;59.50;100740.72;4315593;33;20121;-85
2023/01/01 02:57:05;;;;;;;107.00;40.00;;;;;;;5.75;59.49;100747.59;4322494;33;20163;-85
2023/01/01 03:00:18;;;;;;;141.52;40.33;;;;;;;5.68;59.49;100740.66;4320218;33;20166;-85
2023/01/01 03:03:20;;;;;;;115.05;37.40;;;;;;;5.64;59.49;100731.19;4307385;33;20487;-85
2023/01/01 03:09:21;;;;;;;115.30;38.28;;;;;;;5.54;59.49;100732.88;4311611;33;20489;-85
2023/01/01 03:12:01;;;;;;;120.13;43.10;;;;;;;5.61;59.48;100733.75;4293467;33;20108;-85
2023/01/01 03:14:42;;;;;;;114.53;40.05;;;;;;;5.77;59.50;100732.97;4323108;33;20123;-85
2023/01/01 03:17:15;;;;;;;171.45;41.22;;;;;;;5.78;59.51;100739.84;4287897;33;20099;-85
2023/01/01 03:19:41;;;;;;;167.18;37.25;;;;;;;5.84;59.51;100732.13;4327860;33;20104;-85
2023/01/01 03:22:08;;;;;;;133.98;40.83;;;;;;;5.61;59.49;100726.88;4319688;33;20431;-85
2023/01/01 03:24:37;;;;;;;163.95;41.55;;;;;;;5.64;59.49;100738.94;4311464;33;20473;-85
2023/01/01 03:27:16;;;;;;;142.00;38.92;;;;;;;5.83;59.50;100727.81;4309721;33;20095;-84
2023/01/01 03:29:42;;;;;;;115.20;37.75;;;;;;;5.81;59.50;100732.97;4294283;33;20129;-83
2023/01/01 03:32:13;;;;;;;96.53;35.05;;;;;;;5.79;59.50;100732.09;4295585;33;20374;-84
2023/01/01 03:34:40;;;;;;;123.10;36.75;;;;;;;5.82;59.50;100728.66;4321423;33;20167;-84
2023/01/01 03:37:07;;;;;;;92.88;35.15;;;;;;;5.84;59.51;100721.78;4321563;33;20171;-85
2023/01/01 03:39:37;;;;;;;92.22;37.17;;;;;;;5.62;59.49;100728.59;4309711;33;20138;-85
2023/01/01 03:42:14;;;;;;;151.30;38.13;;;;;;;5.57;59.49;100730.31;4321935;33;20145;-85
2023/01/01 03:45:08;;;;;;;258.38;39.90;;;;;;;5.51;59.48;100732.88;4289412;33;20080;-85
2023/01/01 03:47:33;;;;;;;107.75;36.70;;;;;;;5.43;59.48;100725.06;4322092;33;20105;-86
2023/01/01 03:49:59;;;;;;;87.40;35.63;;;;;;;5.47;59.48;100732.00;4321895;33;20095;-85
2023/01/01 03:52:56;;;;;;;129.93;37.10;;;;;;;5.43;59.48;100731.94;4297331;33;20167;-84
2023/01/01 03:55:38;;;;;;;94.47;37.80;;;;;;;5.42;59.48;100722.47;4333598;33;20151;-85
2023/01/01 03:58:25;;;;;;;187.07;42.00;;;;;;;5.42;59.48;100722.47;4306954;33;20738;-85
2023/01/01 04:01:02;;;;;;;122.47;41.00;;;;;;;5.43;59.48;100730.22;4324121;33;20196;-85
2023/01/01 04:03:28;;;;;;;170.07;38.28;;;;;;;5.45;59.48;100725.97;4321453;33;20123;-85
2023/01/01 04:05:54;;;;;;;153.87;39.95;;;;;;;5.44;59.48;100725.94;4333228;33;20096;-85
2023/01/01 04:08:19;;;;;;;137.00;39.85;;;;;;;5.54;59.49;100725.13;4332626;33;20091;-84
2023/01/01 04:10:50;;;;;;;108.87;37.10;;;;;;;5.52;59.49;100719.09;4318622;33;20104;-85
2023/01/01 04:13:15;;;;;;;86.45;34.65;;;;;;;5.56;59.49;100720.84;4324487;33;20111;-85
2023/01/01 04:15:40;;;;;;;87.32;37.20;;;;;;;5.62;59.49;100715.69;4321129;33;20131;-83
2023/01/01 04:18:06;;;;;;;115.43;37.65;;;;;;;5.69;59.50;100726.91;4310966;33;21481;-84
2023/01/01 04:20:31;;;;;;;102.50;36.40;;;;;;;5.63;59.49;100722.56;4318136;33;20425;-85
2023/01/01 04:22:57;;;;;;;161.88;38.22;;;;;;;5.61;59.49;100724.28;4320541;33;20144;-84
2023/01/01 04:25:23;;;;;;;172.90;38.90;;;;;;;5.83;59.51;100718.34;4321104;33;20099;-84
2023/01/01 04:27:48;;;;;;;207.90;42.58;;;;;;;5.92;59.51;100721.84;4320628;33;22316;-84
2023/01/01 04:30:14;;;;;;;104.32;37.45;;;;;;;5.91;59.51;100714.94;4334062;33;20464;-84
2023/01/01 04:32:39;;;;;;;212.52;42.13;;;;;;;6.19;59.52;100716.72;4309138;33;20108;-84
2023/01/01 04:35:06;;;;;;;118.10;36.80;;;;;;;5.81;59.50;100721.78;4321232;33;20100;-86
2023/01/01 04:37:31;;;;;;;114.47;35.60;;;;;;;5.73;59.49;100714.00;4320861;33;20105;-84
2023/01/01 04:39:56;;;;;;;108.12;37.65;;;;;;;5.80;59.50;100712.31;4321156;33;20170;-84
2023/01/01 04:42:22;;;;;;;114.78;35.70;;;;;;;5.71;59.50;100705.41;4320235;33;21653;-84
2023/01/01 04:44:47;;;;;;;144.45;36.83;;;;;;;5.73;59.49;100710.56;4307730;33;20166;-84
2023/01/01 04:47:13;;;;;;;93.72;36.05;;;;;;;5.70;59.50;100713.16;4296124;33;20161;-84
2023/01/01 04:49:38;;;;;;;89.07;36.65;;;;;;;5.84;59.51;100714.03;4308010;33;20111;-85
2023/01/01 04:52:04;;;;;;;232.45;40.17;;;;;;;5.75;59.50;100714.87;4323022;33;20130;-84
2023/01/01 04:54:29;;;;;;;104.12;36.65;;;;;;;5.51;59.48;100719.97;4296569;33;20087;-84
2023/01/01 04:56:54;;;;;;;96.12;37.67;;;;;;;5.48;59.48;100714.78;4308707;33;20175;-85
2023/01/01 04:59:20;;;;;;;121.43;35.67;;;;;;;5.49;59.48;100708.75;4308104;33;20206;-84
2023/01/01 05:01:45;;;;;;;102.57;34.67;;;;;;;5.57;59.49;100719.97;4332320;33;22525;-84
2023/01/01 05:04:14;;;;;;;188.10;37.38;;;;;;;5.48;59.48;100722.53;4318086;33;20155;-84
2023/01/01 05:06:39;;;;;;;185.60;38.80;;;;;;;5.45;59.48;100722.53;4307475;33;20118;-84
2023/01/01 05:09:05;;;;;;;85.80;34.63;;;;;;;5.42;59.48;100717.31;4320470;33;22015;-85
2023/01/01 05:11:30;;;;;;;103.47;35.63;;;;;;;5.44;59.48;100725.94;4323458;33;20421;-85
2023/01/01 05:13:57;;;;;;;92.03;34.65;;;;;;;5.37;59.47;100719.03;4321208;33;20473;-85
2023/01/01 05:16:25;;;;;;;83.55;33.88;;;;;;;5.49;59.49;100719.09;4309099;33;20084;-86
2023/01/01 05:18:50;;;;;;;105.37;36.85;;;;;;;5.58;59.49;100719.13;4321544;33;20437;-86
2023/01/01 05:21:21;;;;;;;186.15;42.75;;;;;;;5.64;59.49;100713.97;4312139;33;20108;-86
2023/01/01 05:23:46;;;;;;;112.37;39.95;;;;;;;5.71;59.50;100715.72;4309203;33;20147;-86
2023/01/01 05:26:16;;;;;;;102.97;41.28;;;;;;;5.76;59.50;100711.44;4333486;33;20099;-85
2023/01/01 05:28:42;;;;;;;174.70;44.92;;;;;;;5.67;59.49;100716.56;4321089;33;20133;-85
2023/01/01 05:31:09;;;;;;;138.15;44.92;;;;;;;5.63;59.49;100716.53;4296591;33;20458;-84
2023/01/01 05:33:34;;;;;;;188.30;45.20;;;;;;;5.47;59.48;100726.84;4303718;33;20087;-84
2023/01/01 05:36:00;;;;;;;133.45;43.20;;;;;;;5.55;59.49;100734.59;4323592;33;20154;-86
2023/01/01 05:38:25;;;;;;;213.93;44.42;;;;;;;5.62;59.49;100735.47;4309134;33;20107;-85
2023/01/01 05:40:51;;;;;;;200.05;47.65;;;;;;;5.43;59.48;100742.28;4294126;33;20139;-86
2023/01/01 05:43:16;;;;;;;207.50;48.45;;;;;;;5.39;59.48;100737.97;4298764;33;20115;-85
2023/01/01 05:45:43;;;;;;;229.13;49.80;;;;;;;5.53;59.49;100736.31;4308829;33;20118;-85
2023/01/01 05:48:08;;;;;;;178.87;44.63;;;;;;;5.43;59.48;100740.56;4297284;33;20549;-85
2023/01/01 05:50:34;;;;;;;155.50;46.65;;;;;;;5.44;59.48;100732.00;4308929;33;20091;-85
2023/01/01 05:52:59;;;;;;;179.00;44.45;;;;;;;5.59;59.49;100741.50;4333158;33;20109;-86
2023/01/01 05:55:25;;;;;;;129.18;43.97;;;;;;;5.62;59.49;100741.50;4331929;33;20123;-87
2023/01/01 05:57:50;;;;;;;178.50;44.08;;;;;;;5.55;59.49;100747.50;4302039;33;20187;-87
2023/01/01 06:00:15;;;;;;;120.97;43.35;;;;;;;5.47;59.48;100760.41;4297457;33;21958;-87
2023/01/01 06:02:41;;;;;;;140.12;42.35;;;;;;;5.74;59.50;100766.53;4321952;33;20460;-87
2023/01/01 06:05:07;;;;;;;111.20;38.83;;;;;;;5.59;59.49;100772.50;4333746;33;20180;-86
2023/01/01 06:07:32;;;;;;;140.10;40.72;;;;;;;5.47;59.48;100768.16;4321836;33;20683;-87
2023/01/01 06:09:57;;;;;;;105.03;39.75;;;;;;;5.51;59.48;100774.19;4324572;33;20163;-87
2023/01/01 06:12:23;;;;;;;89.65;38.20;;;;;;;5.49;59.48;100781.06;4315740;33;20448;-87
2023/01/01 06:14:48;;;;;;;125.07;39.63;;;;;;;5.42;59.48;100784.44;4320723;33;20143;-87
2023/01/01 06:17:14;;;;;;;90.20;38.33;;;;;;;5.39;59.48;100789.59;4297369;33;23353;-87
2023/01/01 06:19:39;;;;;;;121.50;38.78;;;;;;;5.62;59.49;100798.31;4320500;33;20152;-87
2023/01/01 06:22:04;;;;;;;92.28;38.90;;;;;;;5.70;59.50;100798.38;4289376;33;20428;-86
2023/01/01 06:24:30;;;;;;;119.78;37.50;;;;;;;5.70;59.50;100800.97;4334378;33;20167;-87
2023/01/01 06:26:55;;;;;;;175.55;38.97;;;;;;;5.61;59.48;100806.06;4328111;33;20461;-87
2023/01/01 06:29:21;;;;;;;99.60;37.95;;;;;;;5.48;59.48;100806.03;4317210;33;20143;-86
2023/01/01 06:31:46;;;;;;;175.65;45.17;;;;;;;5.64;59.49;100814.69;4327789;33;20099;-86
2023/01/01 06:34:12;;;;;;;85.47;39.72;;;;;;;5.71;59.50;100816.47;4327037;33;22004;-86
2023/01/01 06:36:37;;;;;;;162.82;42.30;;;;;;;5.63;59.50;100814.69;4321377;33;20483;-86
2023/01/01 06:39:03;;;;;;;97.25;37.78;;;;;;;5.59;59.49;100818.12;4313292;33;20454;-86
2023/01/01 06:41:29;;;;;;;104.43;38.05;;;;;;;5.64;59.49;100812.12;4333437;33;20092;-85
2023/01/01 06:43:55;;;;;;;103.28;36.20;;;;;;;5.67;59.49;100822.47;4308823;33;20110;-85
2023/01/01 06:46:27;;;;;;;119.13;35.25;;;;;;;5.75;59.49;100830.25;4311611;33;20127;-86
2023/01/01 06:48:58;;;;;;;109.78;35.55;;;;;;;5.67;59.49;100837.94;4332913;33;20130;-86
2023/01/01 06:51:28;;;;;;;113.78;37.72;;;;;;;5.81;59.50;100835.47;4308662;33;20445;-86
2023/01/01 06:53:53;;;;;;;;;;;;;;;5.80;59.50;100831.16;4308397;33;20115;-85
2023/01/01 06:56:19;;;;;;;64.10;30.87;;;;;;;5.68;59.50;100824.22;4325461;33;20010;-85
2023/01/01 06:58:44;;;;;;;85.55;32.63;;;;;;;5.79;59.49;100826.84;4311200;33;20193;-85
2023/01/01 07:01:12;;;;;;;93.47;35.38;;;;;;;5.86;59.50;100826.00;4320135;33;20179;-86
2023/01/01 07:03:38;;;;;;;75.97;34.53;;;;;;;5.90;59.50;100819.16;4322756;33;20107;-85
2023/01/01 07:06:04;;;;;;;78.15;34.05;;;;;;;5.70;59.50;100811.31;4312197;33;20126;-86
2023/01/01 07:08:29;;;;;;;92.75;35.80;;;;;;;5.74;59.50;100823.37;4293143;33;20121;-86
2023/01/01 07:10:56;;;;;;;119.50;36.85;;;;;;;5.64;59.49;100826.75;4308056;33;20135;-85
2023/01/01 07:13:23;;;;;;;157.75;40.95;;;;;;;5.90;59.51;100814.84;4320476;33;20505;-85
2023/01/01 07:15:48;;;;;;;93.62;41.85;;;;;;;5.71;59.50;100824.22;4320210;33;20091;-85
2023/01/01 07:18:14;;;;;;;134.57;43.13;;;;;;;5.73;59.49;100827.69;4319751;33;20157;-85
2023/01/01 07:20:39;;;;;;;99.97;42.58;;;;;;;5.70;59.50;100819.06;4312934;33;20187;-85
2023/01/01 07:23:04;;;;;;;90.97;42.45;;;;;;;6.03;59.51;100823.53;4305177;33;20160;-85
2023/01/01 07:25:30;;;;;;;93.62;41.03;;;;;;;6.21;59.53;100821.00;4319806;33;20228;-85
2023/01/01 07:27:55;;;;;;;92.90;42.75;;;;;;;6.31;59.53;100808.94;4310578;33;20944;-84
2023/01/01 07:30:21;;;;;;;77.70;40.55;;;;;;;6.37;59.53;100809.81;4302747;33;20091;-86
2023/01/01 07:32:46;;;;;;;112.20;44.40;;;;;;;6.05;59.51;100808.88;4310406;33;20111;-86
2023/01/01 07:35:11;;;;;;;105.70;44.35;;;;;;;5.94;59.51;100808.84;4320427;33;20139;-86
2023/01/01 07:37:37;;;;;;;98.97;42.58;;;;;;;6.27;59.52;100813.25;4308440;33;20167;-85
2023/01/01 07:40:02;;;;;;;72.78;37.67;;;;;;;6.23;59.53;100813.25;4293385;33;20167;-86
2023/01/01 07:42:28;;;;;;;82.88;37.55;;;;;;;6.22;59.53;100812.38;4305619;33;20234;-85
2023/01/01 07:44:53;;;;;;;81.85;35.33;;;;;;;6.25;59.52;100812.38;4301966;33;20130;-86
2023/01/01 07:47:23;;;;;;;100.50;35.58;;;;;;;6.28;59.53;100817.56;4292961;33;20168;-87
2023/01/01 07:49:49;;;;;;;;;;;;;;;6.35;59.54;100824.47;4314173;33;20191;-86
2023/01/01 07:52:14;;;;;;;84.57;35.17;;;;;;;6.23;59.53;100823.59;4331382;33;20288;-87
2023/01/01 07:54:40;;;;;;;79.40;33.33;;;;;;;6.35;59.54;100834.81;4328334;33;20101;-87
2023/01/01 07:57:05;;;;;;;86.43;34.28;;;;;;;6.46;59.54;100833.13;4294206;33;20148;-87
2023/01/01 07:59:30;;;;;;;70.53;33.95;;;;;;;6.60;59.55;100834.84;4300319;33;20463;-86
2023/01/01 08:01:56;;;;;;;105.93;33.90;;;;;;;6.67;59.55;100839.19;4296105;33;20096;-86
2023/01/01 08:04:21;;;;;;;111.80;35.28;;;;;;;6.80;59.55;100840.06;4332368;33;20120;-86
2023/01/01 08:06:47;;;;;;;88.47;33.90;;;;;;;6.91;59.56;100848.72;4320367;33;20151;-86
2023/01/01 08:09:12;;;;;;;72.70;33.85;;;;;;;6.81;59.56;100850.41;4319930;33;20141;-86
2023/01/01 08:11:37;;;;;;;106.70;34.33;;;;;;;7.10;59.58;100850.44;4310961;33;20139;-85
2023/01/01 08:14:03;;;;;;;72.28;33.00;;;;;;;7.20;59.58;100846.97;4299722;33;20163;-86
2023/01/01 08:16:28;;;;;;;78.05;34.03;;;;;;;7.35;59.59;100846.09;4319807;33;20477;-86
2023/01/01 08:18:54;;;;;;;74.10;34.72;;;;;;;7.50;59.60;100847.78;4334928;33;20115;-84
2023/01/01 08:21:19;;;;;;;63.03;33.03;;;;;;;7.59;59.60;100864.19;4308789;33;20145;-83
2023/01/01 08:23:45;;;;;;;57.97;31.20;;;;;;;7.63;59.60;100868.50;4320846;33;20473;-84
2023/01/01 08:26:15;;;;;;;57.88;32.33;;;;;;;7.90;59.61;100858.94;4333967;33;20533;-85
2023/01/01 08:28:40;;;;;;;71.43;32.10;;;;;;;7.67;59.60;100859.84;4321018;33;20928;-84
2023/01/01 08:31:06;;;;;;;88.07;33.15;;;;;;;7.76;59.60;100861.53;4335759;33;20112;-84
2023/01/01 08:33:31;;;;;;;55.75;33.05;;;;;;;7.77;59.61;100868.44;4335779;33;20492;-85
2023/01/01 08:35:56;;;;;;;73.65;32.20;;;;;;;7.91;59.61;100865.84;4323992;33;20111;-84
2023/01/01 08:38:22;;;;;;;69.53;33.25;;;;;;;7.93;59.62;100864.09;4320601;33;21184;-85
2023/01/01 08:40:47;;;;;;;59.58;33.38;;;;;;;8.04;59.62;100858.84;4336323;33;20103;-85
2023/01/01 08:43:13;;;;;;;61.45;34.17;;;;;;;8.23;59.64;100861.38;4296675;33;20162;-86
2023/01/01 08:45:38;;;;;;;66.10;36.38;;;;;;;8.43;59.64;100860.44;4297407;33;20377;-86
2023/01/01 08:48:04;;;;;;;61.80;34.95;;;;;;;8.52;59.66;100848.31;4315398;33;20771;-85
2023/01/01 08:50:29;;;;;;;57.67;32.63;;;;;;;8.67;59.66;100852.50;4293711;33;20108;-85
2023/01/01 08:52:56;;;;;;;51.92;33.45;;;;;;;8.87;59.67;100844.59;4323384;33;20459;-85
2023/01/01 08:55:22;;;;;;;50.72;30.30;;;;;;;8.84;59.67;100839.41;4300525;33;20142;-86
2023/01/01 08:57:47;;;;;;;47.85;27.67;;;;;;;8.88;59.66;100834.19;4333539;33;20429;-84
2023/01/01 09:00:13;;;;;;;42.75;25.05;;;;;;;8.94;59.67;100843.66;4296997;33;20210;-86
2023/01/01 09:02:38;;;;;;;45.53;26.55;;;;;;;8.88;59.67;100841.13;4297297;33;20152;-82
2023/01/01 09:05:04;;;;;;;43.25;25.08;;;;;;;8.96;59.67;100846.25;4334269;33;20143;-87
2023/01/01 09:07:30;;;;;;;43.55;26.00;;;;;;;8.98;59.68;100847.09;4312384;33;20083;-86
2023/01/01 09:09:55;;;;;;;46.88;25.90;;;;;;;9.15;59.68;100847.81;4323529;33;20487;-86
2023/01/01 09:12:21;;;;;;;46.30;27.30;;;;;;;9.25;59.69;100854.66;4315134;33;20156;-85
2023/01/01 09:14:46;;;;;;;47.22;26.73;;;;;;;9.47;59.70;100850.13;4315871;33;20608;-85
2023/01/01 09:17:12;;;;;;;44.88;25.92;;;;;;;9.50;59.70;100850.97;4333501;33;20147;-86
2023/01/01 09:19:37;;;;;;;38.65;23.62;;;;;;;9.49;59.71;100851.84;4311666;33;20478;-87
2023/01/01 09:22:02;;;;;;;41.00;23.12;;;;;;;9.61;59.71;100848.25;4333407;33;20104;-86
2023/01/01 09:24:28;;;;;;;42.40;22.70;;;;;;;9.54;59.71;100847.44;4320286;33;20418;-85
2023/01/01 09:26:53;;;;;;;41.85;23.17;;;;;;;9.72;59.71;100842.94;4320312;33;20465;-85
2023/01/01 09:29:20;;;;;;;41.92;24.00;;;;;;;9.90;59.73;100845.31;4319840;33;20186;-86
2023/01/01 09:31:46;;;;;;;40.53;24.10;;;;;;;9.81;59.73;100848.03;4315166;33;20131;-84
2023/01/01 09:34:12;;;;;;;36.45;21.12;;;;;;;9.93;59.72;100850.47;4277874;33;191411;-86
2023/01/01 09:36:37;;;;;;;35.28;20.17;;;;;;;9.97;59.73;100840.91;4296830;33;20351;-86
2023/01/01 09:39:03;;;;;;;37.97;21.08;;;;;;;10.04;59.73;100842.56;4321217;33;20103;-86
2023/01/01 09:41:50;;;;;;;34.40;20.88;;;;;;;10.19;59.75;100841.50;4296974;33;20097;-86
2023/01/01 09:44:53;;;;;;;36.92;20.35;;;;;;;10.25;59.75;100844.06;4309011;33;20116;-86
2023/01/01 09:47:29;;;;;;;35.97;19.35;;;;;;;10.36;59.75;100835.22;4317605;33;20118;-86
2023/01/01 09:49:57;;;;;;;33.55;19.45;;;;;;;10.44;59.75;100840.34;4310931;32;20096;-85
2023/01/01 09:52:23;;;;;;;31.73;19.37;;;;;;;10.49;59.76;100835.91;4298590;33;20151;-85
2023/01/01 09:54:55;;;;;;;36.67;19.80;;;;;;;10.56;59.77;100837.53;4303555;33;20496;-85
2023/01/01 09:57:21;;;;;;;36.20;19.55;;;;;;;10.56;59.76;100840.13;4310092;33;20140;-83
2023/01/01 09:59:46;;;;;;;36.50;21.12;;;;;;;10.63;59.77;100841.75;4332912;33;20401;-86
2023/01/01 10:02:46;;;;;;;33.70;20.27;;;;;;;10.52;59.75;100841.06;4320312;33;20111;-85
2023/01/01 10:05:25;;;;;;;35.33;20.30;;;;;;;10.59;59.76;100842.69;4332327;33;20119;-85
2023/01/01 10:08:17;;;;;;;36.45;20.40;;;;;;;10.64;59.77;100838.28;4320247;33;20218;-86
2023/01/01 10:10:48;;;;;;;33.50;17.90;;;;;;;10.84;59.79;100837.13;4302717;33;20092;-85
2023/01/01 10:13:22;;;;;;;34.08;19.27;;;;;;;10.89;59.78;100844.00;4333841;33;21053;-86
2023/01/01 10:15:57;;;;;;;31.17;18.90;;;;;;;11.00;59.79;100828.19;4332775;33;20468;-85
2023/01/01 10:18:28;;;;;;;32.53;19.08;;;;;;;10.98;59.78;100829.94;4334008;33;20445;-85
2023/01/01 10:21:09;;;;;;;32.22;18.27;;;;;;;11.01;59.79;100827.28;4320197;33;20446;-85
2023/01/01 10:23:55;;;;;;;33.28;18.00;;;;;;;11.13;59.79;100824.50;4322745;33;20203;-86
2023/01/01 10:26:22;;;;;;;34.47;19.20;;;;;;;11.11;59.79;100818.41;4320360;33;20173;-85
2023/01/01 10:29:10;;;;;;;33.53;19.77;;;;;;;11.28;59.80;100810.31;4307969;33;20093;-86
2023/01/01 10:31:41;;;;;;;36.80;20.05;;;;;;;11.32;59.80;100814.59;4317415;33;20178;-86
2023/01/01 10:34:19;;;;;;;35.92;20.65;;;;;;;11.45;59.80;100812.63;4332539;33;20131;-86
2023/01/01 10:36:44;;;;;;;37.67;21.65;;;;;;;11.40;59.81;100815.31;4333705;33;20130;-86
2023/01/01 10:39:16;;;;;;;42.67;22.42;;;;;;;11.59;59.83;100803.66;4309472;33;20111;-86
2023/01/01 10:41:42;;;;;;;44.30;23.38;;;;;;;11.63;59.82;100802.72;4304943;33;20100;-85
2023/01/01 10:44:09;;;;;;;41.13;22.73;;;;;;;11.80;59.83;100798.91;4316442;33;20116;-83
2023/01/01 10:46:34;;;;;;;46.10;24.20;;;;;;;11.80;59.82;100791.97;4319210;33;20520;-83
2023/01/01 10:49:09;;;;;;;44.03;23.05;;;;;;;11.81;59.82;100793.66;4318930;33;21009;-84
2023/01/01 10:51:36;;;;;;;44.22;23.70;;;;;;;11.90;59.84;100793.50;4296009;33;20172;-85
2023/01/01 10:54:01;;;;;;;42.50;22.67;;;;;;;11.96;59.84;100790.75;4310060;33;20100;-85
2023/01/01 10:56:36;;;;;;;36.67;21.30;;;;;;;12.06;59.85;100793.16;4307754;33;20595;-85
2023/01/01 10:59:02;;;;;;;38.75;20.12;;;;;;;12.17;59.85;100791.19;4296589;33;20083;-85
2023/01/01 11:01:29;;;;;;;35.10;18.95;;;;;;;11.94;59.83;100795.16;4311255;33;20110;-85
2023/01/01 11:04:06;;;;;;;34.00;19.33;;;;;;;12.02;59.84;100781.06;4303767;33;20116;-85
2023/01/01 11:06:38;;;;;;;34.33;19.27;;;;;;;11.81;59.83;100780.63;4328354;33;20087;-85
2023/01/01 11:09:05;;;;;;;35.47;19.55;;;;;;;11.90;59.84;100772.63;4332025;33;20095;-85
2023/01/01 11:11:44;;;;;;;33.50;18.35;;;;;;;11.83;59.83;100760.62;4319584;33;20091;-86
2023/01/01 11:14:21;;;;;;;31.90;18.10;;;;;;;12.02;59.84;100758.44;4307388;33;20108;-85
2023/01/01 11:16:46;;;;;;;28.38;17.55;;;;;;;12.09;59.85;100740.94;4307332;33;20220;-85
2023/01/01 11:19:20;;;;;;;32.90;19.45;;;;;;;12.14;59.85;100737.31;4319266;33;20111;-85
2023/01/01 11:21:46;;;;;;;31.55;17.50;;;;;;;12.05;59.84;100729.66;4321283;33;20225;-84